sensor_id;sensor_type;location;lat;lon;timestamp;pressure;altitude;pressure_sealevel;temperature;humidity
2785;BME280;57944;48.722;9.316;2023-12-07T00:02:12;98382.19;;;1.19;100.00
2785;BME280;57944;48.722;9.316;2023-12-07T00:04:43;98382.97;;;1.19;100.00
2785;BME280;57944;48.722;9.316;2023-12-07T00:07:13;98386.06;;;1.23;100.00
2785;BME280;57944;48.722;9.316;2023-12-07T00:09:44;98392.41;;;1.27;100.00
2785;BME280;57944;48.722;9.316;2023-12-07T00:12:18;98390.84;;;1.26;100.00
2785;BME280;57944;48.722;9.316;2023-12-07T00:14:49;98394.00;;;1.28;100.00
2785;BME280;57944;48.722;9.316;2023-12-07T00:17:19;98397.34;;;1.28;100.00
2785;BME280;57944;48.722;9.316;2023-12-07T00:19:51;98392.09;;;1.41;100.00
2785;BME280;57944;48.722;9.316;2023-12-07T00:22:23;98401.91;;;1.44;100.00
2785;BME280;57944;48.722;9.316;2023-12-07T00:24:56;98401.47;;;1.39;100.00
2785;BME280;57944;48.722;9.316;2023-12-07T00:27:29;98397.97;;;1.30;100.00
2785;BME280;57944;48.722;9.316;2023-12-07T00:30:00;98404.22;;;1.36;100.00
2785;BME280;57944;48.722;9.316;2023-12-07T00:32:31;98401.06;;;1.34;100.00
2785;BME280;57944;48.722;9.316;2023-12-07T00:35:01;98398.97;;;1.39;100.00
2785;BME280;57944;48.722;9.316;2023-12-07T00:37:32;98399.63;;;1.41;100.00
2785;BME280;57944;48.722;9.316;2023-12-07T00:40:03;98401.31;;;1.31;100.00
2785;BME280;57944;48.722;9.316;2023-12-07T00:42:38;98400.25;;;1.33;100.00
2785;BME280;57944;48.722;9.316;2023-12-07T00:45:11;98408.84;;;1.31;100.00
2785;BME280;57944;48.722;9.316;2023-12-07T00:47:41;98406.09;;;1.34;100.00
2785;BME280;57944;48.722;9.316;2023-12-07T00:50:12;98412.88;;;1.43;100.00
2785;BME280;57944;48.722;9.316;2023-12-07T00:52:44;98406.50;;;1.39;100.00
2785;BME280;57944;48.722;9.316;2023-12-07T00:55:15;98408.59;;;1.34;100.00
2785;BME280;57944;48.722;9.316;2023-12-07T00:57:48;98409.69;;;1.41;100.00
2785;BME280;57944;48.722;9.316;2023-12-07T01:00:18;98403.13;;;1.50;100.00
2785;BME280;57944;48.722;9.316;2023-12-07T01:02:50;98411.88;;;1.55;100.00
2785;BME280;57944;48.722;9.316;2023-12-07T01:05:21;98420.63;;;1.61;100.00
2785;BME280;57944;48.722;9.316;2023-12-07T01:07:51;98424.25;;;1.47;100.00
2785;BME280;57944;48.722;9.316;2023-12-07T01:10:22;98425.38;;;1.54;100.00
2785;BME280;57944;48.722;9.316;2023-12-07T01:12:55;98428.06;;;1.63;100.00
2785;BME280;57944;48.722;9.316;2023-12-07T01:15:26;98434.97;;;1.70;100.00
2785;BME280;57944;48.722;9.316;2023-12-07T01:17:57;98437.09;;;1.75;100.00
2785;BME280;57944;48.722;9.316;2023-12-07T01:20:28;98446.00;;;1.79;100.00
2785;BME280;57944;48.722;9.316;2023-12-07T01:22:58;98439.69;;;1.85;100.00
2785;BME280;57944;48.722;9.316;2023-12-07T01:25:29;98435.38;;;1.75;100.00
2785;BME280;57944;48.722;9.316;2023-12-07T01:28:03;98432.84;;;1.66;100.00
2785;BME280;57944;48.722;9.316;2023-12-07T01:30:33;98441.06;;;1.68;100.00
2785;BME280;57944;48.722;9.316;2023-12-07T01:33:04;98442.88;;;1.66;100.00
2785;BME280;57944;48.722;9.316;2023-12-07T01:35:35;98440.25;;;1.67;100.00
2785;BME280;57944;48.722;9.316;2023-12-07T01:38:05;98442.63;;;1.69;100.00
2785;BME280;57944;48.722;9.316;2023-12-07T01:40:36;98445.28;;;1.67;100.00
2785;BME280;57944;48.722;9.316;2023-12-07T01:43:11;98446.72;;;1.70;100.00
2785;BME280;57944;48.722;9.316;2023-12-07T01:45:41;98444.34;;;1.68;100.00
2785;BME280;57944;48.722;9.316;2023-12-07T01:48:12;98442.81;;;1.56;100.00
2785;BME280;57944;48.722;9.316;2023-12-07T01:50:43;98446.22;;;1.45;100.00
2785;BME280;57944;48.722;9.316;2023-12-07T01:53:15;98447.16;;;1.33;100.00
2785;BME280;57944;48.722;9.316;2023-12-07T01:55:47;98449.03;;;1.31;100.00
2785;BME280;57944;48.722;9.316;2023-12-07T01:58:21;98445.25;;;1.25;100.00
2785;BME280;57944;48.722;9.316;2023-12-07T02:00:52;98439.97;;;1.07;100.00
2785;BME280;57944;48.722;9.316;2023-12-07T02:03:24;98446.03;;;1.05;100.00
2785;BME280;57944;48.722;9.316;2023-12-07T02:05:55;98451.19;;;1.03;100.00
2785;BME280;57944;48.722;9.316;2023-12-07T02:08:27;98455.28;;;1.04;100.00
2785;BME280;57944;48.722;9.316;2023-12-07T02:10:58;98449.31;;;1.05;100.00
2785;BME280;57944;48.722;9.316;2023-12-07T02:13:32;98458.91;;;1.11;100.00
2785;BME280;57944;48.722;9.316;2023-12-07T02:16:10;98450.81;;;1.08;100.00
2785;BME280;57944;48.722;9.316;2023-12-07T02:18:48;98446.38;;;1.00;100.00
2785;BME280;57944;48.722;9.316;2023-12-07T02:21:25;98443.88;;;1.00;100.00
2785;BME280;57944;48.722;9.316;2023-12-07T02:23:59;98443.22;;;0.98;100.00
2785;BME280;57944;48.722;9.316;2023-12-07T02:26:34;98443.13;;;0.88;100.00
2785;BME280;57944;48.722;9.316;2023-12-07T02:29:05;98451.47;;;0.78;100.00
2785;BME280;57944;48.722;9.316;2023-12-07T02:31:35;98448.53;;;0.73;100.00
2785;BME280;57944;48.722;9.316;2023-12-07T02:34:06;98448.44;;;0.63;100.00
2785;BME280;57944;48.722;9.316;2023-12-07T02:36:39;98451.66;;;0.54;100.00
2785;BME280;57944;48.722;9.316;2023-12-07T02:39:10;98453.25;;;0.43;100.00
2785;BME280;57944;48.722;9.316;2023-12-07T02:41:46;98451.31;;;0.36;100.00
2785;BME280;57944;48.722;9.316;2023-12-07T02:44:18;98457.72;;;0.29;100.00
2785;BME280;57944;48.722;9.316;2023-12-07T02:46:49;98459.06;;;0.21;100.00
2785;BME280;57944;48.722;9.316;2023-12-07T02:49:19;98449.50;;;0.15;100.00
2785;BME280;57944;48.722;9.316;2023-12-07T02:51:50;98449.97;;;0.09;100.00
2785;BME280;57944;48.722;9.316;2023-12-07T02:54:20;98449.03;;;-0.01;100.00
2785;BME280;57944;48.722;9.316;2023-12-07T02:56:54;98452.69;;;-0.16;100.00
2785;BME280;57944;48.722;9.316;2023-12-07T02:59:24;98441.84;;;-0.28;100.00
2785;BME280;57944;48.722;9.316;2023-12-07T03:01:55;98446.69;;;-0.49;100.00
2785;BME280;57944;48.722;9.316;2023-12-07T03:04:25;98456.47;;;-0.57;100.00
2785;BME280;57944;48.722;9.316;2023-12-07T03:06:56;98459.19;;;-0.60;100.00
2785;BME280;57944;48.722;9.316;2023-12-07T03:09:26;98460.53;;;-0.68;100.00
2785;BME280;57944;48.722;9.316;2023-12-07T03:11:59;98462.41;;;-0.82;100.00
2785;BME280;57944;48.722;9.316;2023-12-07T03:14:30;98459.06;;;-0.94;100.00
2785;BME280;57944;48.722;9.316;2023-12-07T03:17:01;98458.47;;;-1.22;100.00
2785;BME280;57944;48.722;9.316;2023-12-07T03:19:32;98464.75;;;-1.16;100.00
2785;BME280;57944;48.722;9.316;2023-12-07T03:22:02;98460.19;;;-1.22;100.00
2785;BME280;57944;48.722;9.316;2023-12-07T03:24:34;98453.69;;;-1.25;100.00
2785;BME280;57944;48.722;9.316;2023-12-07T03:27:08;98455.69;;;-1.30;100.00
2785;BME280;57944;48.722;9.316;2023-12-07T03:29:38;98457.81;;;-1.37;100.00
2785;BME280;57944;48.722;9.316;2023-12-07T03:32:09;98460.06;;;-1.45;100.00
2785;BME280;57944;48.722;9.316;2023-12-07T03:34:40;98457.16;;;-1.51;100.00
2785;BME280;57944;48.722;9.316;2023-12-07T03:37:10;98454.66;;;-1.51;100.00
2785;BME280;57944;48.722;9.316;2023-12-07T03:39:41;98456.44;;;-1.53;100.00
2785;BME280;57944;48.722;9.316;2023-12-07T03:42:14;98465.34;;;-1.49;100.00
2785;BME280;57944;48.722;9.316;2023-12-07T03:45:06;98456.78;;;-1.58;100.00
2785;BME280;57944;48.722;9.316;2023-12-07T03:47:37;98459.38;;;-1.60;100.00
2785;BME280;57944;48.722;9.316;2023-12-07T03:50:08;98456.34;;;-1.52;100.00
2785;BME280;57944;48.722;9.316;2023-12-07T03:52:39;98463.06;;;-1.52;100.00
2785;BME280;57944;48.722;9.316;2023-12-07T03:55:10;98468.28;;;-1.55;100.00
2785;BME280;57944;48.722;9.316;2023-12-07T03:57:43;98470.06;;;-1.58;100.00
2785;BME280;57944;48.722;9.316;2023-12-07T04:00:14;98469.47;;;-1.61;100.00
2785;BME280;57944;48.722;9.316;2023-12-07T04:02:45;98466.56;;;-1.68;100.00
2785;BME280;57944;48.722;9.316;2023-12-07T04:05:16;98474.47;;;-1.74;100.00
2785;BME280;57944;48.722;9.316;2023-12-07T04:07:46;98478.31;;;-1.81;100.00
2785;BME280;57944;48.722;9.316;2023-12-07T04:10:17;98478.19;;;-1.80;100.00
2785;BME280;57944;48.722;9.316;2023-12-07T04:12:50;98481.69;;;-1.82;100.00
2785;BME280;57944;48.722;9.316;2023-12-07T04:15:21;98483.97;;;-1.79;100.00
2785;BME280;57944;48.722;9.316;2023-12-07T04:17:51;98479.69;;;-1.77;100.00
2785;BME280;57944;48.722;9.316;2023-12-07T04:20:22;98480.88;;;-1.70;100.00
2785;BME280;57944;48.722;9.316;2023-12-07T04:22:53;98477.28;;;-1.66;100.00
2785;BME280;57944;48.722;9.316;2023-12-07T04:25:23;98481.78;;;-1.71;100.00
2785;BME280;57944;48.722;9.316;2023-12-07T04:27:56;98490.78;;;-1.68;100.00
2785;BME280;57944;48.722;9.316;2023-12-07T04:30:27;98485.28;;;-1.86;100.00
2785;BME280;57944;48.722;9.316;2023-12-07T04:32:59;98485.59;;;-1.91;100.00
2785;BME280;57944;48.722;9.316;2023-12-07T04:35:30;98481.88;;;-1.85;100.00
2785;BME280;57944;48.722;9.316;2023-12-07T04:38:01;98485.97;;;-1.84;100.00
2785;BME280;57944;48.722;9.316;2023-12-07T04:40:32;98494.47;;;-1.87;100.00
2785;BME280;57944;48.722;9.316;2023-12-07T04:43:05;98493.16;;;-1.92;100.00
2785;BME280;57944;48.722;9.316;2023-12-07T04:45:35;98494.28;;;-1.96;100.00
2785;BME280;57944;48.722;9.316;2023-12-07T04:48:06;98493.88;;;-1.90;100.00
2785;BME280;57944;48.722;9.316;2023-12-07T04:50:37;98494.38;;;-1.85;100.00
2785;BME280;57944;48.722;9.316;2023-12-07T04:53:07;98492.19;;;-1.77;100.00
2785;BME280;57944;48.722;9.316;2023-12-07T04:55:38;98494.84;;;-1.67;100.00
2785;BME280;57944;48.722;9.316;2023-12-07T04:58:13;98493.25;;;-1.55;100.00
2785;BME280;57944;48.722;9.316;2023-12-07T05:00:44;98489.28;;;-1.34;100.00
2785;BME280;57944;48.722;9.316;2023-12-07T05:03:15;98489.66;;;-1.15;100.00
2785;BME280;57944;48.722;9.316;2023-12-07T05:05:46;98490.09;;;-0.97;100.00
2785;BME280;57944;48.722;9.316;2023-12-07T05:08:17;98490.72;;;-0.82;100.00
2785;BME280;57944;48.722;9.316;2023-12-07T05:10:48;98493.97;;;-0.69;100.00
2785;BME280;57944;48.722;9.316;2023-12-07T05:13:21;98489.22;;;-0.60;100.00
2785;BME280;57944;48.722;9.316;2023-12-07T05:15:52;98494.22;;;-0.60;100.00
2785;BME280;57944;48.722;9.316;2023-12-07T05:18:23;98492.63;;;-0.61;100.00
2785;BME280;57944;48.722;9.316;2023-12-07T05:20:53;98495.06;;;-0.73;100.00
2785;BME280;57944;48.722;9.316;2023-12-07T05:23:24;98497.91;;;-0.77;100.00
2785;BME280;57944;48.722;9.316;2023-12-07T05:25:55;98497.06;;;-0.89;100.00
2785;BME280;57944;48.722;9.316;2023-12-07T05:28:28;98501.31;;;-1.02;100.00
2785;BME280;57944;48.722;9.316;2023-12-07T05:30:59;98504.66;;;-1.15;100.00
2785;BME280;57944;48.722;9.316;2023-12-07T05:33:29;98506.19;;;-1.25;100.00
2785;BME280;57944;48.722;9.316;2023-12-07T05:36:00;98504.84;;;-1.42;100.00
2785;BME280;57944;48.722;9.316;2023-12-07T05:38:31;98507.84;;;-1.49;100.00
2785;BME280;57944;48.722;9.316;2023-12-07T05:41:02;98507.13;;;-1.51;100.00
2785;BME280;57944;48.722;9.316;2023-12-07T05:43:35;98503.25;;;-1.55;100.00
2785;BME280;57944;48.722;9.316;2023-12-07T05:46:06;98507.09;;;-1.75;100.00
2785;BME280;57944;48.722;9.316;2023-12-07T05:48:37;98500.28;;;-1.86;100.00
2785;BME280;57944;48.722;9.316;2023-12-07T05:51:12;98510.25;;;-1.99;100.00
2785;BME280;57944;48.722;9.316;2023-12-07T05:53:43;98506.88;;;-2.11;100.00
2785;BME280;57944;48.722;9.316;2023-12-07T05:56:18;98506.03;;;-2.24;100.00
2785;BME280;57944;48.722;9.316;2023-12-07T05:58:52;98494.16;;;-2.33;100.00
2785;BME280;57944;48.722;9.316;2023-12-07T06:01:23;98492.84;;;-2.39;100.00
2785;BME280;57944;48.722;9.316;2023-12-07T06:03:54;98494.25;;;-2.35;100.00
2785;BME280;57944;48.722;9.316;2023-12-07T06:06:24;98494.25;;;-2.35;100.00
2785;BME280;57944;48.722;9.316;2023-12-07T06:08:56;98495.25;;;-2.37;100.00
2785;BME280;57944;48.722;9.316;2023-12-07T06:11:26;98496.34;;;-2.41;100.00
2785;BME280;57944;48.722;9.316;2023-12-07T06:13:59;98498.31;;;-2.47;100.00
2785;BME280;57944;48.722;9.316;2023-12-07T06:16:30;98501.94;;;-2.51;100.00
2785;BME280;57944;48.722;9.316;2023-12-07T06:19:01;98500.63;;;-2.56;100.00
2785;BME280;57944;48.722;9.316;2023-12-07T06:21:32;98499.91;;;-2.58;100.00
2785;BME280;57944;48.722;9.316;2023-12-07T06:24:03;98494.41;;;-2.63;100.00
2785;BME280;57944;48.722;9.316;2023-12-07T06:26:34;98495.78;;;-2.72;100.00
2785;BME280;57944;48.722;9.316;2023-12-07T06:29:07;98492.81;;;-2.64;100.00
2785;BME280;57944;48.722;9.316;2023-12-07T06:31:43;98491.63;;;-2.59;100.00
2785;BME280;57944;48.722;9.316;2023-12-07T06:34:13;98489.69;;;-2.68;100.00
2785;BME280;57944;48.722;9.316;2023-12-07T06:36:44;98495.25;;;-2.77;100.00
2785;BME280;57944;48.722;9.316;2023-12-07T06:39:15;98494.78;;;-2.70;100.00
2785;BME280;57944;48.722;9.316;2023-12-07T06:41:46;98501.59;;;-2.59;100.00
2785;BME280;57944;48.722;9.316;2023-12-07T06:44:19;98499.91;;;-2.58;100.00
2785;BME280;57944;48.722;9.316;2023-12-07T06:46:49;98500.66;;;-2.71;100.00
2785;BME280;57944;48.722;9.316;2023-12-07T06:49:20;98501.16;;;-2.78;100.00
2785;BME280;57944;48.722;9.316;2023-12-07T06:52:01;98501.00;;;-2.89;100.00
2785;BME280;57944;48.722;9.316;2023-12-07T06:54:31;98504.16;;;-3.00;100.00
2785;BME280;57944;48.722;9.316;2023-12-07T06:57:02;98502.69;;;-3.17;100.00
2785;BME280;57944;48.722;9.316;2023-12-07T06:59:37;98504.25;;;-3.16;100.00
2785;BME280;57944;48.722;9.316;2023-12-07T07:02:08;98505.69;;;-3.12;100.00
2785;BME280;57944;48.722;9.316;2023-12-07T07:04:39;98498.03;;;-3.09;100.00
2785;BME280;57944;48.722;9.316;2023-12-07T07:07:10;98498.63;;;-3.05;100.00
2785;BME280;57944;48.722;9.316;2023-12-07T07:09:40;98501.94;;;-3.05;100.00
2785;BME280;57944;48.722;9.316;2023-12-07T07:12:11;98499.69;;;-2.95;100.00
2785;BME280;57944;48.722;9.316;2023-12-07T07:14:44;98507.00;;;-2.79;100.00
2785;BME280;57944;48.722;9.316;2023-12-07T07:17:15;98505.16;;;-2.63;100.00
2785;BME280;57944;48.722;9.316;2023-12-07T07:19:46;98504.59;;;-2.54;100.00
2785;BME280;57944;48.722;9.316;2023-12-07T07:22:16;98510.81;;;-2.47;100.00
2785;BME280;57944;48.722;9.316;2023-12-07T07:24:48;98508.91;;;-2.56;100.00
2785;BME280;57944;48.722;9.316;2023-12-07T07:27:18;98503.41;;;-2.48;100.00
2785;BME280;57944;48.722;9.316;2023-12-07T07:29:51;98492.06;;;-2.39;100.00
2785;BME280;57944;48.722;9.316;2023-12-07T07:32:22;98491.25;;;-2.40;100.00
2785;BME280;57944;48.722;9.316;2023-12-07T07:34:53;98493.25;;;-2.32;100.00
2785;BME280;57944;48.722;9.316;2023-12-07T07:37:23;98486.28;;;-2.27;100.00
2785;BME280;57944;48.722;9.316;2023-12-07T07:39:55;98494.06;;;-2.19;100.00
2785;BME280;57944;48.722;9.316;2023-12-07T07:42:27;98500.97;;;-2.10;100.00
2785;BME280;57944;48.722;9.316;2023-12-07T07:45:00;98502.88;;;-2.13;100.00
2785;BME280;57944;48.722;9.316;2023-12-07T07:47:31;98498.88;;;-2.16;100.00
2785;BME280;57944;48.722;9.316;2023-12-07T07:50:01;98498.66;;;-2.13;100.00
2785;BME280;57944;48.722;9.316;2023-12-07T07:52:33;98504.56;;;-2.14;100.00
2785;BME280;57944;48.722;9.316;2023-12-07T07:55:05;98514.84;;;-2.18;100.00
2785;BME280;57944;48.722;9.316;2023-12-07T07:57:35;98513.25;;;-2.07;100.00
2785;BME280;57944;48.722;9.316;2023-12-07T08:00:10;98516.34;;;-1.90;100.00
2785;BME280;57944;48.722;9.316;2023-12-07T08:02:41;98514.56;;;-1.88;100.00
2785;BME280;57944;48.722;9.316;2023-12-07T08:05:11;98513.66;;;-1.87;100.00
2785;BME280;57944;48.722;9.316;2023-12-07T08:07:42;98509.88;;;-1.80;100.00
2785;BME280;57944;48.722;9.316;2023-12-07T08:10:13;98514.66;;;-1.77;100.00
2785;BME280;57944;48.722;9.316;2023-12-07T08:12:43;98509.25;;;-1.71;100.00
2785;BME280;57944;48.722;9.316;2023-12-07T08:15:16;98518.63;;;-1.62;100.00
2785;BME280;57944;48.722;9.316;2023-12-07T08:17:49;98515.06;;;-1.58;100.00
2785;BME280;57944;48.722;9.316;2023-12-07T08:20:20;98517.25;;;-1.53;100.00
2785;BME280;57944;48.722;9.316;2023-12-07T08:22:50;98509.34;;;-1.60;100.00
2785;BME280;57944;48.722;9.316;2023-12-07T08:25:21;98519.47;;;-1.61;100.00
2785;BME280;57944;48.722;9.316;2023-12-07T08:27:52;98525.53;;;-1.52;100.00
2785;BME280;57944;48.722;9.316;2023-12-07T08:30:25;98523.44;;;-1.46;100.00
2785;BME280;57944;48.722;9.316;2023-12-07T08:32:56;98516.13;;;-1.36;100.00
2785;BME280;57944;48.722;9.316;2023-12-07T08:35:27;98524.28;;;-1.34;100.00
2785;BME280;57944;48.722;9.316;2023-12-07T08:37:57;98523.63;;;-1.36;100.00
2785;BME280;57944;48.722;9.316;2023-12-07T08:40:28;98518.00;;;-1.27;100.00
2785;BME280;57944;48.722;9.316;2023-12-07T08:42:59;98519.19;;;-1.20;100.00
2785;BME280;57944;48.722;9.316;2023-12-07T08:45:32;98521.38;;;-1.15;100.00
2785;BME280;57944;48.722;9.316;2023-12-07T08:48:06;98523.56;;;-1.10;100.00
2785;BME280;57944;48.722;9.316;2023-12-07T08:50:37;98522.94;;;-1.01;100.00
2785;BME280;57944;48.722;9.316;2023-12-07T08:53:08;98522.94;;;-1.01;100.00
2785;BME280;57944;48.722;9.316;2023-12-07T08:55:38;98533.19;;;-0.93;100.00
2785;BME280;57944;48.722;9.316;2023-12-07T08:58:10;98526.06;;;-0.86;100.00
2785;BME280;57944;48.722;9.316;2023-12-07T09:00:43;98532.47;;;-0.82;100.00
2785;BME280;57944;48.722;9.316;2023-12-07T09:03:14;98523.16;;;-0.80;100.00
2785;BME280;57944;48.722;9.316;2023-12-07T09:05:44;98511.50;;;-0.69;100.00
2785;BME280;57944;48.722;9.316;2023-12-07T09:08:15;98508.47;;;-0.61;100.00
2785;BME280;57944;48.722;9.316;2023-12-07T09:10:46;98494.94;;;-0.58;100.00
2785;BME280;57944;48.722;9.316;2023-12-07T09:13:18;98503.59;;;-0.51;100.00
2785;BME280;57944;48.722;9.316;2023-12-07T09:15:52;98500.53;;;-0.43;100.00
2785;BME280;57944;48.722;9.316;2023-12-07T09:18:23;98498.84;;;-0.43;100.00
2785;BME280;57944;48.722;9.316;2023-12-07T09:20:54;98505.25;;;-0.39;100.00
2785;BME280;57944;48.722;9.316;2023-12-07T09:23:24;98495.00;;;-0.36;100.00
2785;BME280;57944;48.722;9.316;2023-12-07T09:25:55;98492.75;;;-0.28;100.00
2785;BME280;57944;48.722;9.316;2023-12-07T09:28:25;98490.91;;;-0.26;100.00
2785;BME280;57944;48.722;9.316;2023-12-07T09:30:58;98492.53;;;-0.13;100.00
2785;BME280;57944;48.722;9.316;2023-12-07T09:33:29;98483.00;;;-0.08;100.00
2785;BME280;57944;48.722;9.316;2023-12-07T09:36:00;98480.47;;;-0.08;100.00
2785;BME280;57944;48.722;9.316;2023-12-07T09:38:31;98490.28;;;-0.05;100.00
2785;BME280;57944;48.722;9.316;2023-12-07T09:41:02;98489.13;;;-0.01;100.00
2785;BME280;57944;48.722;9.316;2023-12-07T09:43:32;98488.13;;;0.02;100.00
2785;BME280;57944;48.722;9.316;2023-12-07T09:46:06;98493.13;;;0.02;100.00
2785;BME280;57944;48.722;9.316;2023-12-07T09:48:37;98494.84;;;0.12;100.00
2785;BME280;57944;48.722;9.316;2023-12-07T09:51:10;98486.19;;;0.16;100.00
2785;BME280;57944;48.722;9.316;2023-12-07T09:53:43;98481.16;;;0.16;100.00
2785;BME280;57944;48.722;9.316;2023-12-07T09:56:15;98480.03;;;0.20;100.00
2785;BME280;57944;48.722;9.316;2023-12-07T09:58:46;98473.78;;;0.15;100.00
2785;BME280;57944;48.722;9.316;2023-12-07T10:01:19;98465.78;;;0.21;100.00
2785;BME280;57944;48.722;9.316;2023-12-07T10:03:49;98465.69;;;0.22;100.00
2785;BME280;57944;48.722;9.316;2023-12-07T10:06:21;98469.31;;;0.18;100.00
2785;BME280;57944;48.722;9.316;2023-12-07T10:09:03;98465.00;;;0.20;100.00
2785;BME280;57944;48.722;9.316;2023-12-07T10:11:43;98465.91;;;0.19;100.00
2785;BME280;57944;48.722;9.316;2023-12-07T10:14:14;98462.81;;;0.27;100.00
2785;BME280;57944;48.722;9.316;2023-12-07T10:16:55;98457.00;;;0.38;100.00
2785;BME280;57944;48.722;9.316;2023-12-07T10:19:26;98446.88;;;0.39;100.00
2785;BME280;57944;48.722;9.316;2023-12-07T10:22:00;98444.81;;;0.44;100.00
2785;BME280;57944;48.722;9.316;2023-12-07T10:24:31;98441.97;;;0.49;100.00
2785;BME280;57944;48.722;9.316;2023-12-07T10:27:01;98446.25;;;0.58;100.00
2785;BME280;57944;48.722;9.316;2023-12-07T10:29:36;98440.22;;;0.61;100.00
2785;BME280;57944;48.722;9.316;2023-12-07T10:32:11;98432.00;;;0.70;100.00
2785;BME280;57944;48.722;9.316;2023-12-07T10:34:42;98424.56;;;0.80;100.00
2785;BME280;57944;48.722;9.316;2023-12-07T10:37:12;98419.78;;;0.77;100.00
2785;BME280;57944;48.722;9.316;2023-12-07T10:39:43;98420.28;;;0.92;100.00
2785;BME280;57944;48.722;9.316;2023-12-07T10:42:16;98411.78;;;0.83;100.00
2785;BME280;57944;48.722;9.316;2023-12-07T10:44:50;98413.78;;;0.89;100.00
2785;BME280;57944;48.722;9.316;2023-12-07T10:47:26;98424.22;;;1.05;100.00
2785;BME280;57944;48.722;9.316;2023-12-07T10:50:00;98417.31;;;0.98;100.00
2785;BME280;57944;48.722;9.316;2023-12-07T10:52:32;98416.50;;;0.97;100.00
2785;BME280;57944;48.722;9.316;2023-12-07T10:55:09;98413.94;;;1.08;100.00
2785;BME280;57944;48.722;9.316;2023-12-07T10:57:44;98410.84;;;1.16;100.00
2785;BME280;57944;48.722;9.316;2023-12-07T11:00:17;98414.81;;;1.19;100.00
2785;BME280;57944;48.722;9.316;2023-12-07T11:03:10;98410.44;;;1.32;100.00
2785;BME280;57944;48.722;9.316;2023-12-07T11:05:41;98413.06;;;1.30;100.00
2785;BME280;57944;48.722;9.316;2023-12-07T11:08:18;98415.13;;;1.46;100.00
2785;BME280;57944;48.722;9.316;2023-12-07T11:10:58;98408.81;;;1.52;100.00
2785;BME280;57944;48.722;9.316;2023-12-07T11:13:33;98389.84;;;1.38;100.00
2785;BME280;57944;48.722;9.316;2023-12-07T11:16:06;98385.78;;;1.47;100.00
2785;BME280;57944;48.722;9.316;2023-12-07T11:18:42;98376.19;;;1.52;100.00
2785;BME280;57944;48.722;9.316;2023-12-07T11:21:12;98373.13;;;1.48;100.00
2785;BME280;57944;48.722;9.316;2023-12-07T11:23:43;98360.56;;;1.48;100.00
2785;BME280;57944;48.722;9.316;2023-12-07T11:26:14;98363.00;;;1.60;100.00
2785;BME280;57944;48.722;9.316;2023-12-07T11:28:44;98360.09;;;1.64;100.00
2785;BME280;57944;48.722;9.316;2023-12-07T11:31:16;98351.56;;;1.76;100.00
2785;BME280;57944;48.722;9.316;2023-12-07T11:33:50;98354.88;;;1.77;100.00
2785;BME280;57944;48.722;9.316;2023-12-07T11:36:21;98348.28;;;1.86;100.00
2785;BME280;57944;48.722;9.316;2023-12-07T11:39:16;98343.16;;;1.87;100.00
2785;BME280;57944;48.722;9.316;2023-12-07T11:41:58;98342.63;;;1.93;100.00
2785;BME280;57944;48.722;9.316;2023-12-07T11:44:38;98341.84;;;2.03;100.00
2785;BME280;57944;48.722;9.316;2023-12-07T11:47:09;98327.59;;;2.13;100.00
2785;BME280;57944;48.722;9.316;2023-12-07T11:49:43;98320.31;;;2.10;100.00
2785;BME280;57944;48.722;9.316;2023-12-07T11:52:15;98325.34;;;2.10;100.00
2785;BME280;57944;48.722;9.316;2023-12-07T11:54:46;98315.69;;;2.15;100.00
2785;BME280;57944;48.722;9.316;2023-12-07T11:57:18;98305.50;;;2.16;100.00
2785;BME280;57944;48.722;9.316;2023-12-07T11:59:49;98306.31;;;2.36;100.00
2785;BME280;57944;48.722;9.316;2023-12-07T12:02:20;98304.47;;;2.38;100.00
2785;BME280;57944;48.722;9.316;2023-12-07T12:04:53;98312.53;;;2.42;100.00
2785;BME280;57944;48.722;9.316;2023-12-07T12:07:24;98300.78;;;2.42;100.00
2785;BME280;57944;48.722;9.316;2023-12-07T12:09:55;98292.69;;;2.49;100.00
2785;BME280;57944;48.722;9.316;2023-12-07T12:12:32;98276.94;;;2.46;100.00
2785;BME280;57944;48.722;9.316;2023-12-07T12:15:03;98276.66;;;2.59;100.00
2785;BME280;57944;48.722;9.316;2023-12-07T12:17:35;98273.22;;;2.60;100.00
2785;BME280;57944;48.722;9.316;2023-12-07T12:20:10;98267.66;;;2.57;100.00
2785;BME280;57944;48.722;9.316;2023-12-07T12:22:44;98264.31;;;2.56;100.00
2785;BME280;57944;48.722;9.316;2023-12-07T12:25:15;98255.72;;;2.59;100.00
2785;BME280;57944;48.722;9.316;2023-12-07T12:27:46;98249.00;;;2.59;100.00
2785;BME280;57944;48.722;9.316;2023-12-07T12:30:18;98248.56;;;2.64;100.00
2785;BME280;57944;48.722;9.316;2023-12-07T12:32:50;98253.59;;;2.64;100.00
2785;BME280;57944;48.722;9.316;2023-12-07T12:35:23;98254.28;;;2.66;100.00
2785;BME280;57944;48.722;9.316;2023-12-07T12:37:55;98249.13;;;2.67;100.00
2785;BME280;57944;48.722;9.316;2023-12-07T12:40:28;98239.28;;;2.74;100.00
2785;BME280;57944;48.722;9.316;2023-12-07T12:42:59;98231.69;;;2.94;100.00
2785;BME280;57944;48.722;9.316;2023-12-07T12:45:30;98232.25;;;2.87;100.00
2785;BME280;57944;48.722;9.316;2023-12-07T12:48:02;98218.44;;;2.91;100.00
2785;BME280;57944;48.722;9.316;2023-12-07T12:50:36;98221.75;;;2.92;100.00
2785;BME280;57944;48.722;9.316;2023-12-07T12:53:08;98219.66;;;2.87;100.00
2785;BME280;57944;48.722;9.316;2023-12-07T12:55:42;98219.78;;;2.96;100.00
2785;BME280;57944;48.722;9.316;2023-12-07T12:58:15;98216.00;;;3.09;100.00
2785;BME280;57944;48.722;9.316;2023-12-07T13:00:45;98211.63;;;3.11;100.00
2785;BME280;57944;48.722;9.316;2023-12-07T13:03:17;98202.69;;;3.27;100.00
2785;BME280;57944;48.722;9.316;2023-12-07T13:05:50;98206.56;;;3.21;100.00
2785;BME280;57944;48.722;9.316;2023-12-07T13:08:21;98205.31;;;3.25;100.00
2785;BME280;57944;48.722;9.316;2023-12-07T13:10:51;98212.56;;;3.38;100.00
2785;BME280;57944;48.722;9.316;2023-12-07T13:13:22;98209.19;;;3.47;100.00
2785;BME280;57944;48.722;9.316;2023-12-07T13:15:53;98209.28;;;3.55;100.00
2785;BME280;57944;48.722;9.316;2023-12-07T13:18:23;98203.97;;;3.58;100.00
2785;BME280;57944;48.722;9.316;2023-12-07T13:20:56;98204.47;;;3.62;100.00
2785;BME280;57944;48.722;9.316;2023-12-07T13:23:27;98195.53;;;3.50;100.00
2785;BME280;57944;48.722;9.316;2023-12-07T13:25:58;98195.53;;;3.50;100.00
2785;BME280;57944;48.722;9.316;2023-12-07T13:28:29;98187.03;;;3.51;100.00
2785;BME280;57944;48.722;9.316;2023-12-07T13:31:00;98187.31;;;3.48;100.00